• Join FlightAware (Why Join?)
  • Login
  • US Flag 
04:09PM EDT


 

Airport Tracker/Info


-or-


 

Live Flight TrackerFlight Track Log ✈ C-GDSJ ✈ 25-Oct-2013 ✈ KEYE - CYTZ

Flight Track Log - Related Links

Times and Time Zones

All times are in EDT time to prevent confusion due to time zone crossing. See the C-GDSJ flight status page for this flight to view local times or setup timezone preferences in your user account.

Time Position Orientation Groundspeed Altitude Reporting Facility
EDT Latitude Longitude Course Direction KTS MPH feet Rate Location/Type
07:05AM 39.8167 -86.3000 270° West 84 97 1,300  Level Indianapolis TRACON
07:06AM 39.8167 -86.3167 270° West 96 110 2,000 660 Climbing Indianapolis TRACON
07:07AM 39.8333 -86.3333 322° Northwest 91 105 2,700 600 Climbing Indianapolis TRACON
07:08AM 39.8500 -86.3333 360° North 105 121 3,300 540 Climbing Indianapolis TRACON
07:09AM 39.8667 -86.3000 57° Northeast 113 130 3,800 540 Climbing Indianapolis TRACON
07:10AM 39.8833 -86.2667 57° Northeast 116 133 4,400 540 Climbing Indianapolis TRACON
07:11AM 39.9061 -86.2314 50° Northeast 114 131 5,000 540 Climbing Indianapolis Center
07:12AM 39.9250 -86.1964 55° Northeast 117 135 5,600 540 Climbing Indianapolis Center
07:13AM 39.9439 -86.1606 55° Northeast 118 136 6,100 540 Climbing Indianapolis Center
07:14AM 39.9631 -86.1244 55° Northeast 120 138 6,700 420 Climbing Indianapolis Center
07:15AM 39.9839 -86.0886 53° Northeast 121 139 7,000 120 Climbing Indianapolis Center
07:16AM 40.0089 -86.0478 51° Northeast 132 152 7,000  Level Indianapolis Center
07:17AM 40.0333 -86.0033 54° Northeast 142 163 7,000  Level Indianapolis Center
07:18AM 40.0567 -85.9592 55° Northeast 146 168 7,000  Level Indianapolis Center
07:19AM 40.0800 -85.9153 55° Northeast 147 169 7,000  Level Indianapolis Center
07:20AM 40.1033 -85.8717 55° Northeast 147 169 7,000  Level Indianapolis Center
07:21AM 40.1319 -85.8194 54° Northeast 147 169 7,000  Level Indianapolis Center
07:22AM 40.1556 -85.7758 55° Northeast 148 170 7,000  Level Indianapolis Center
07:23AM 40.1794 -85.7328 54° Northeast 147 169 7,000  Level Indianapolis Center
07:24AM 40.2036 -85.6897 54° Northeast 147 169 7,000  Level Indianapolis Center
07:25AM 40.2272 -85.6469 54° Northeast 146 168 7,000  Level Indianapolis Center
07:26AM 40.2506 -85.6044 54° Northeast 145 167 7,000  Level Indianapolis Center
07:27AM 40.2742 -85.5617 54° Northeast 145 167 7,000  Level Indianapolis Center
07:28AM 40.2972 -85.5183 55° Northeast 146 168 7,000  Level Indianapolis Center
07:29AM 40.3206 -85.4744 55° Northeast 146 168 7,000  Level Indianapolis Center
07:30AM 40.3431 -85.4311 56° Northeast 145 167 7,000  Level Indianapolis Center
07:31AM 40.3697 -85.3783 56° Northeast 145 167 7,000  Level Indianapolis Center
07:32AM 40.3894 -85.3447 52° Northeast 145 167 7,000  Level Chicago Center
07:33AM 40.4142 -85.3008 53° Northeast 147 169 7,000  Level Chicago Center
07:34AM 40.4378 -85.2589 54° Northeast 145 167 7,000  Level Chicago Center
07:35AM 40.4622 -85.2147 54° Northeast 148 170 7,000  Level Chicago Center
07:36AM 40.4853 -85.1717 55° Northeast 146 168 7,000  Level Chicago Center
07:37AM 40.5089 -85.1269 55° Northeast 148 170 7,000  Level Chicago Center
07:38AM 40.5342 -85.0728 58° Northeast 146 168 7,000  Level Chicago Center
07:39AM 40.5556 -85.0247 60° Northeast 150 173 7,000  Level Chicago Center
07:40AM 40.5758 -84.9794 59° Northeast 147 169 7,000  Level Chicago Center
07:41AM 40.5967 -84.9311 60° Northeast 149 171 7,000  Level Chicago Center
07:42AM 40.6189 -84.8839 58° Northeast 151 174 7,000  Level Chicago Center
07:43AM 40.6419 -84.8381 56° Northeast 151 174 7,000  Level Chicago Center
07:44AM 40.6661 -84.7875 58° Northeast 154 177 7,000  Level Chicago Center
07:45AM 40.6878 -84.7431 57° Northeast 147 169 7,000  Level Chicago Center
07:46AM 40.7114 -84.6975 56° Northeast 150 173 7,000  Level Chicago Center
07:47AM 40.7400 -84.6433 55° Northeast 150 173 7,000  Level Chicago Center
07:48AM 40.7650 -84.5994 53° Northeast 150 173 7,000  Level Chicago Center
07:49AM 40.7894 -84.5556 54° Northeast 150 173 7,000  Level Chicago Center
07:50AM 40.8150 -84.5122 52° Northeast 150 173 7,000  Level Chicago Center
07:51AM 40.8397 -84.4681 53° Northeast 150 173 7,000  Level Chicago Center
07:52AM 40.8647 -84.4242 53° Northeast 150 173 7,000  Level Chicago Center
07:53AM 40.8892 -84.3783 55° Northeast 151 174 7,000  Level Chicago Center
07:55AM 40.9142 -84.3333 54° Northeast 152 175 7,000  Level Chicago Center
07:56AM 40.9439 -84.2792 54° Northeast 151 174 7,000  Level Chicago Center
07:57AM 40.9667 -84.2333 57° Northeast 152 175 7,000  Level Chicago Center
07:58AM 40.9903 -84.1875 56° Northeast 151 174 7,000  Level Chicago Center
07:59AM 41.0144 -84.1436 54° Northeast 150 173 7,000  Level Chicago Center
08:00AM 41.0586 -84.0664 53° Northeast 150 173 7,000  Level Cleveland Center
08:01AM 41.0839 -84.0272 49° Northeast 144 166 7,000  Level Cleveland Center
08:03AM 41.1100 -83.9883 48° Northeast 142 163 7,000  Level Cleveland Center
08:04AM 41.1411 -83.9392 50° Northeast 145 167 7,000  Level Cleveland Center
08:05AM 41.1661 -83.8972 52° Northeast 146 168 7,000  Level Cleveland Center
08:06AM 41.1911 -83.8525 53° Northeast 146 168 7,000  Level Cleveland Center
08:07AM 41.2175 -83.8100 50° Northeast 149 171 7,000  Level Cleveland Center
08:08AM 41.2414 -83.7697 52° Northeast 142 163 7,000  Level Cleveland Center
08:09AM 41.2664 -83.7278 52° Northeast 145 167 7,000  Level Cleveland Center
08:10AM 41.2914 -83.6867 51° Northeast 145 167 7,000  Level Cleveland Center
08:11AM 41.3211 -83.6361 52° Northeast 145 167 7,000  Level Cleveland Center
08:12AM 41.3472 -83.5939 51° Northeast 147 169 7,000  Level Cleveland Center
08:13AM 41.3725 -83.5511 52° Northeast 146 168 7,000  Level Cleveland Center
08:14AM 41.3981 -83.5097 51° Northeast 147 169 7,000 -120 Level Cleveland Center
08:14AM 41.4153 -83.4822 50° Northeast 149 171 6,900  Descending Cleveland Center
08:15AM 41.4236 -83.4658 56° Northeast 149 171 7,000  Climbing Cleveland Center
08:15AM 41.4347 -83.4489 49° Northeast 149 171 6,900  Descending Cleveland Center
08:16AM 41.4483 -83.4217 56° Northeast 149 171 7,000  Climbing Cleveland Center
08:16AM 41.4564 -83.4131 39° Northeast 149 171 6,900  Descending Cleveland Center
08:17AM 41.4794 -83.3694 55° Northeast 150 173 7,000  Climbing Cleveland Center
08:17AM 41.4808 -83.3689 17° North 149 171 6,900  Descending Cleveland Center
08:18AM 41.5042 -83.3264 54° Northeast 148 170 7,000  Climbing Cleveland Center
08:18AM 41.5053 -83.3250 43° Northeast 147 169 6,900  Descending Cleveland Center
08:19AM 41.5297 -83.2844 51° Northeast 147 169 7,000  Climbing Cleveland Center
08:20AM 41.5542 -83.2411 53° Northeast 147 169 7,000 -60 Level Cleveland Center
08:21AM 41.5825 -83.1933 52° Northeast 148 170 6,900  Descending Cleveland Center
08:21AM 41.5794 -83.1978 227° Southwest 148 170 7,000 60 Climbing Cleveland Center
08:22AM 41.6042 -83.1572 51° Northeast 146 168 7,000 60 Level Cleveland Center
08:22AM 41.6089 -83.1475 57° Northeast 146 168 7,100  Climbing Cleveland Center
08:23AM 41.6331 -83.1081 51° Northeast 148 170 7,000  Descending Cleveland Center
08:23AM 41.6336 -83.1036 81° East 146 168 7,100  Climbing Cleveland Center
08:24AM 41.6589 -83.0611 51° Northeast 147 169 7,000 -60 Descending Cleveland Center
08:25AM 41.6814 -83.0253 50° Northeast 148 170 7,000  Level Cleveland Center
08:25AM 41.6842 -83.0181 63° Northeast 147 169 7,000  Level Cleveland Center
08:26AM 41.7056 -82.9811 52° Northeast 148 170 7,000  Level Cleveland Center
08:26AM 41.7094 -82.9739 54° Northeast 148 170 7,000  Level Cleveland Center
08:27AM 41.7319 -82.9369 51° Northeast 148 170 7,000  Level Cleveland Center
08:27AM 41.7344 -82.9314 59° Northeast 147 169 7,000  Level Cleveland Center
08:28AM 41.7583 -82.8931 50° Northeast 146 168 7,000  Level Cleveland Center
08:28AM 41.7647 -82.8794 58° Northeast 147 169 7,000  Level Cleveland Center
08:29AM 41.7844 -82.8489 49° Northeast 148 170 7,000  Level Cleveland Center
08:29AM 41.7892 -82.8367 63° Northeast 146 168 7,000  Level Cleveland Center
08:30AM 41.8089 -82.8044 51° Northeast 150 173 7,000  Level Cleveland Center
08:30AM 41.8139 -82.7919 62° Northeast 148 170 7,000  Level Cleveland Center
08:31AM 41.8386 -82.7486 53° Northeast 147 169 7,000  Level Cleveland Center
08:32AM 41.8631 -82.7044 53° Northeast 148 170 7,000  Level Cleveland Center
08:34AM 41.8875 -82.6611 53° Northeast 146 168 7,000  Level Cleveland Center
08:35AM 41.9158 -82.6072 55° Northeast 148 170 7,000  Level Cleveland Center
08:36AM 41.9400 -82.5625 54° Northeast 148 170 7,000  Level Cleveland Center
08:37AM 41.9644 -82.5178 54° Northeast 149 171 7,000  Level Cleveland Center
08:38AM 41.9892 -82.4747 52° Northeast 147 169 7,000  Level Cleveland Center
08:39AM 42.0139 -82.4297 54° Northeast 150 173 7,000  Level Cleveland Center
08:40AM 42.0392 -82.3861 52° Northeast 149 171 7,000  Level Cleveland Center
08:41AM 42.0703 -82.3328 52° Northeast 150 173 7,000  Level Cleveland Center
08:42AM 42.0953 -82.2894 52° Northeast 150 173 7,000  Level Cleveland Center
08:43AM 42.1197 -82.2461 53° Northeast 147 169 7,000  Level Cleveland Center
08:44AM 42.1431 -82.2022 54° Northeast 145 167 7,000  Level Cleveland Center
08:45AM 42.1675 -82.1586 53° Northeast 145 167 7,000  Level Cleveland Center
08:46AM 42.1975 -82.1039 53° Northeast 151 174 7,000  Level Cleveland Center
08:47AM 42.2214 -82.0614 53° Northeast 145 167 7,000  Level Cleveland Center
08:48AM 42.2467 -82.0142 54° Northeast 151 174 7,000  Level Cleveland Center
08:49AM 42.2719 -81.9706 52° Northeast 148 170 7,000  Level Cleveland Center
08:50AM 42.2972 -81.9250 53° Northeast 149 171 7,000  Level Cleveland Center
08:51AM 42.3219 -81.8800 53° Northeast 148 170 7,000  Level Cleveland Center
08:52AM 42.3456 -81.8358 54° Northeast 145 167 7,000  Level Cleveland Center
08:53AM 42.3733 -81.7828 55° Northeast 146 168 7,000  Level Cleveland Center
08:54AM 42.3967 -81.7392 54° Northeast 144 166 7,000  Level Cleveland Center
08:55AM 42.4206 -81.6939 54° Northeast 146 168 7,000  Level Cleveland Center
08:56AM 42.4447 -81.6483 54° Northeast 147 169 7,000 -60 Level Cleveland Center
08:57AM 42.4689 -81.6047 53° Northeast 145 167 6,900 -60 Descending Cleveland Center
08:58AM 42.4939 -81.5603 53° Northeast 147 169 6,900  Level Cleveland Center
08:59AM 42.5219 -81.5069 54° Northeast 147 169 6,900  Level Cleveland Center
09:00AM 42.5464 -81.4622 53° Northeast 146 168 6,900  Level Cleveland Center
09:01AM 42.5700 -81.4186 54° Northeast 144 166 6,900  Level Cleveland Center
09:02AM 42.5861 -81.3683 66° East 143 165 6,900  Level Cleveland Center
09:04AM 42.5992 -81.3161 71° East 144 166 6,900  Level Cleveland Center
09:05AM 42.6097 -81.2606 76° East 148 170 6,900  Level Cleveland Center
09:06AM 42.6225 -81.2047 73° East 150 173 6,900  Level Cleveland Center
09:07AM 42.6372 -81.1483 70° East 154 177 6,900  Level Cleveland Center
09:08AM 42.6536 -81.0836 71° East 154 177 6,900  Level Cleveland Center
09:09AM 42.6686 -81.0292 69° East 154 177 7,000  Climbing Cleveland Center
09:10AM 42.6828 -80.9758 70° East 152 175 7,000  Level Cleveland Center
09:11AM 42.6967 -80.9200 71° East 152 175 7,000  Level Cleveland Center
09:12AM 42.7092 -80.8642 73° East 152 175 7,100  Climbing Cleveland Center
09:13AM 42.7331 -80.8169 55° Northeast 154 177 7,000 -60 Descending Cleveland Center
09:14AM 42.7611 -80.7753 47° Northeast 152 175 7,000  Level Cleveland Center
09:15AM 42.7925 -80.7275 48° Northeast 147 169 7,000  Level Cleveland Center
09:16AM 42.8192 -80.6856 49° Northeast 146 168 7,100  Climbing Cleveland Center
09:17AM 42.8489 -80.6453 45° Northeast 148 170 7,100  Level Cleveland Center
09:18AM 42.8753 -80.6042 49° Northeast 146 168 7,100  Level Cleveland Center
09:19AM 42.8833 -80.5667 74° East 150 173 7,100 -300 Level Toronto Center
09:20AM 42.9167 -80.5167 48° Northeast 160 184 6,700 -540 Descending Toronto Center
09:21AM 42.9333 -80.4500 71° East 160 184 6,100 -540 Descending Toronto Center
09:22AM 42.9500 -80.4000 66° East 150 173 5,700 -420 Descending Toronto Center
09:23AM 42.9833 -80.3667 36° Northeast 150 173 5,300 -360 Descending Toronto Center
09:24AM 43.0000 -80.3167 65° Northeast 140 161 5,000 -240 Descending Toronto Center
09:25AM 43.0167 -80.2667 65° Northeast 130 150 4,900  Descending Toronto Center
09:26AM 43.0333 -80.2333 56° Northeast 130 150 5,000  Climbing Toronto Center
09:27AM 43.0500 -80.1833 65° Northeast 140 161 5,000  Level Toronto Center
09:28AM 43.0667 -80.1333 65° Northeast 140 161 5,000  Level Toronto Center
09:29AM 43.1000 -80.0833 48° Northeast 140 161 5,000  Level Toronto Center
09:30AM 43.1167 -80.0500 56° Northeast 140 161 5,000  Level Toronto Center
09:31AM 43.1333 -80.0000 65° Northeast 140 161 5,000  Level Toronto Center
09:32AM 43.1667 -79.9500 48° Northeast 140 161 5,000  Level Toronto Center
09:33AM 43.2000 -79.9333 20° North 150 173 5,000  Level Toronto Center
09:34AM 43.2167 -79.8833 65° Northeast 140 161 5,000 -60 Level Toronto Center
09:35AM 43.2333 -79.8333 65° Northeast 140 161 4,900 -240 Descending Toronto Center
09:36AM 43.2667 -79.8000 36° Northeast 140 161 4,600 -300 Descending Toronto Center
09:37AM 43.2833 -79.7500 65° Northeast 140 161 4,300 -360 Descending Toronto Center
09:38AM 43.3167 -79.7000 47° Northeast 140 161 3,900 -360 Descending Toronto Center
09:39AM 43.3333 -79.6833 36° Northeast 140 161 3,600 -300 Descending Toronto Center
09:40AM 43.3667 -79.6333 47° Northeast 140 161 3,300 -360 Descending Toronto Center
09:41AM 43.3833 -79.5833 65° Northeast 140 161 2,900 -360 Descending Toronto Center
09:42AM 43.4167 -79.5667 20° North 140 161 2,600 -300 Descending Toronto Center
09:43AM 43.4333 -79.5167 65° Northeast 140 161 2,300 -300 Descending Toronto Center
09:44AM 43.4667 -79.4667 47° Northeast 140 161 2,100 -240 Descending Toronto Center
09:45AM 43.5000 -79.4500 20° North 130 150 1,900 -300 Descending Toronto Center
09:46AM 43.5167 -79.4000 65° Northeast 130 150 1,600 -300 Descending Toronto Center
09:47AM 43.5333 -79.3500 65° Northeast 140 161 1,400 -120 Descending Toronto Center
09:48AM 43.5500 -79.3333 36° Northeast 130 150 1,400 -240 Level Toronto Center
09:49AM 43.5833 -79.3333 360° North 100 115 1,000 -420 Descending Toronto Center
09:50AM 43.6000 -79.3500 324° Northwest 80 92 600 -420 Descending Toronto Center